createdAt,value
2022-09-15T00:01:39.442Z,13.7
2022-09-15T00:06:39.388Z,13.8
2022-09-15T00:11:39.393Z,13.8
2022-09-15T00:16:39.482Z,13.8
2022-09-15T00:21:39.386Z,13.9
2022-09-15T00:26:39.383Z,13.9
2022-09-15T00:31:39.389Z,13.9
2022-09-15T00:36:39.501Z,13.9
2022-09-15T00:41:39.419Z,13.9
2022-09-15T00:46:39.397Z,14.0
2022-09-15T00:51:39.402Z,14.0
2022-09-15T00:56:39.407Z,14.0
2022-09-15T01:01:39.452Z,14.0
2022-09-15T01:06:39.421Z,14.0
2022-09-15T01:11:39.442Z,13.9
2022-09-15T01:16:39.562Z,13.8
2022-09-15T01:21:39.408Z,13.7
2022-09-15T01:26:39.408Z,13.6
2022-09-15T01:31:39.471Z,13.5
2022-09-15T01:36:39.430Z,13.5
2022-09-15T01:41:39.452Z,13.4
2022-09-15T01:46:39.433Z,13.3
2022-09-15T01:51:39.435Z,13.3
2022-09-15T01:56:39.443Z,13.4
2022-09-15T02:01:39.563Z,13.4
2022-09-15T02:06:39.554Z,13.4
2022-09-15T02:11:39.467Z,13.5
2022-09-15T02:16:39.540Z,13.5
2022-09-15T02:21:39.460Z,13.6
2022-09-15T02:26:39.458Z,13.6
2022-09-15T02:31:39.587Z,13.7
2022-09-15T02:36:39.485Z,13.7
2022-09-15T02:41:39.496Z,13.7
2022-09-15T02:46:39.467Z,13.6
2022-09-15T02:51:39.470Z,13.6
2022-09-15T02:56:39.478Z,13.6
2022-09-15T03:01:39.506Z,13.6
2022-09-15T03:06:39.495Z,13.5
2022-09-15T03:11:39.498Z,13.5
2022-09-15T03:16:39.569Z,13.5
2022-09-15T03:21:39.492Z,13.6
2022-09-15T03:26:39.492Z,13.6
2022-09-15T03:31:39.580Z,13.6
2022-09-15T03:36:39.609Z,13.7
2022-09-15T03:41:39.531Z,13.7
2022-09-15T03:46:39.506Z,13.8
2022-09-15T03:51:39.510Z,13.8
2022-09-15T03:56:39.510Z,13.8
2022-09-15T04:01:39.657Z,13.8
2022-09-15T04:06:39.518Z,13.8
2022-09-15T04:11:39.533Z,13.8
2022-09-15T04:16:39.595Z,13.8
2022-09-15T04:21:39.532Z,13.8
2022-09-15T04:26:39.525Z,13.9
2022-09-15T04:31:39.602Z,13.9
2022-09-15T04:36:39.534Z,13.9
2022-09-15T04:41:39.536Z,13.9
2022-09-15T04:46:39.609Z,13.9
2022-09-15T04:51:39.539Z,13.8
2022-09-15T04:56:39.547Z,13.9
2022-09-15T05:01:39.644Z,13.9
2022-09-15T05:06:39.557Z,13.9
2022-09-15T05:11:39.564Z,13.9
2022-09-15T05:16:39.654Z,13.9
2022-09-15T05:21:39.567Z,13.9
2022-09-15T05:26:39.576Z,13.9
2022-09-15T05:31:39.677Z,14.0
2022-09-15T05:36:39.570Z,14.0
2022-09-15T05:41:39.574Z,14.0
2022-09-15T05:46:39.647Z,14.0
2022-09-15T05:51:39.583Z,14.1
2022-09-15T05:56:39.579Z,14.1
2022-09-15T06:01:39.691Z,14.2
2022-09-15T06:06:39.590Z,14.3
2022-09-15T06:11:39.593Z,14.3
2022-09-15T06:16:39.687Z,14.4
2022-09-15T06:21:39.594Z,14.5
2022-09-15T06:26:39.600Z,14.5
2022-09-15T06:31:39.701Z,14.5
2022-09-15T06:36:39.608Z,14.5
2022-09-15T06:42:00.817Z,14.6
2022-09-15T06:46:39.610Z,14.8
2022-09-15T06:51:39.618Z,14.9
2022-09-15T06:56:39.614Z,15.1
2022-09-15T07:01:39.650Z,15.2
2022-09-15T07:06:39.658Z,15.2
2022-09-15T07:11:39.634Z,15.1
2022-09-15T07:16:39.710Z,14.9
2022-09-15T07:21:39.639Z,14.6
2022-09-15T07:26:39.637Z,14.4
2022-09-15T07:31:39.735Z,14.3
2022-09-15T07:36:39.646Z,14.1
2022-09-15T07:41:39.649Z,14.4
2022-09-15T07:46:39.655Z,14.6
2022-09-15T07:51:39.651Z,14.9
2022-09-15T07:56:39.659Z,15.0
2022-09-15T08:01:39.754Z,15.2
2022-09-15T08:06:39.661Z,15.2
2022-09-15T08:11:39.664Z,15.4
2022-09-15T08:16:39.759Z,15.9
2022-09-15T08:21:39.677Z,16.1
2022-09-15T08:26:39.677Z,16.3
2022-09-15T08:31:39.792Z,16.5
2022-09-15T08:36:39.679Z,16.7
2022-09-15T08:41:39.689Z,16.8
2022-09-15T08:46:39.754Z,16.9
2022-09-15T08:51:39.693Z,16.9
2022-09-15T08:56:39.692Z,17.1
2022-09-15T09:01:39.823Z,16.8
2022-09-15T09:06:39.700Z,16.9
2022-09-15T09:11:39.703Z,17.2
2022-09-15T09:16:39.712Z,17.2
2022-09-15T09:21:39.723Z,17.1
2022-09-15T09:26:39.716Z,17.3
2022-09-15T09:31:39.754Z,17.7
2022-09-15T09:36:39.715Z,17.8
2022-09-15T09:41:39.722Z,17.9
2022-09-15T09:46:39.794Z,17.8
2022-09-15T09:51:39.730Z,18.0
2022-09-15T09:56:39.738Z,18.1
2022-09-15T10:01:39.852Z,18.2
2022-09-15T10:06:39.729Z,18.4
2022-09-15T10:11:39.746Z,18.6
2022-09-15T10:16:39.796Z,18.5
2022-09-15T10:21:39.746Z,18.6
2022-09-15T10:26:39.744Z,18.4
2022-09-15T10:31:39.811Z,18.4
2022-09-15T10:36:39.753Z,18.4
2022-09-15T10:41:39.756Z,18.6
2022-09-15T10:46:39.757Z,18.5
2022-09-15T10:51:39.762Z,18.5
2022-09-15T10:56:39.763Z,18.6
2022-09-15T11:01:39.865Z,18.9
2022-09-15T11:06:39.782Z,19.2
2022-09-15T11:11:39.782Z,19.2
2022-09-15T11:16:39.905Z,18.9
2022-09-15T11:21:39.781Z,19.0
2022-09-15T11:26:39.778Z,18.9
2022-09-15T11:31:39.935Z,18.7
2022-09-15T11:36:39.789Z,18.7
2022-09-15T11:41:39.791Z,18.9
2022-09-15T11:46:39.857Z,18.7
2022-09-15T11:51:39.800Z,17.9
2022-09-15T11:56:39.800Z,17.3
2022-09-15T12:01:39.877Z,17.1
2022-09-15T12:06:44.843Z,17.2
2022-09-15T12:11:39.813Z,17.2
2022-09-15T12:16:39.814Z,17.4
2022-09-15T12:21:39.826Z,17.6
2022-09-15T12:26:39.823Z,17.8
2022-09-15T12:31:39.929Z,18.1
2022-09-15T12:36:39.826Z,18.3
2022-09-15T12:41:39.825Z,19.0
2022-09-15T12:46:39.883Z,19.2
2022-09-15T12:51:39.834Z,18.7
2022-09-15T12:56:39.848Z,18.6
2022-09-15T13:01:39.945Z,18.5
2022-09-15T13:06:39.848Z,18.5
2022-09-15T13:11:39.875Z,18.6
2022-09-15T13:16:39.853Z,18.6
2022-09-15T13:21:39.863Z,18.5
2022-09-15T13:26:39.855Z,18.5
2022-09-15T13:31:39.907Z,18.5
2022-09-15T13:41:39.863Z,18.4
2022-09-15T13:46:39.869Z,18.3
2022-09-15T13:51:39.875Z,18.7
2022-09-15T13:56:39.886Z,18.7
2022-09-15T14:01:39.979Z,18.5
2022-09-15T14:06:39.876Z,18.1
2022-09-15T14:11:39.881Z,18.2
2022-09-15T14:16:39.935Z,18.1
2022-09-15T14:21:39.895Z,18.7
2022-09-15T14:26:39.893Z,18.5
2022-09-15T14:31:40.005Z,18.5
2022-09-15T14:36:39.900Z,18.6
2022-09-15T14:41:39.900Z,19.0
2022-09-15T14:46:39.906Z,18.7
2022-09-15T14:51:39.914Z,18.4
2022-09-15T14:56:39.911Z,18.3
2022-09-15T15:01:39.951Z,18.1
2022-09-15T15:06:39.919Z,18.0
2022-09-15T15:11:39.925Z,18.0
2022-09-15T15:16:39.996Z,17.8
2022-09-15T15:21:39.922Z,17.7
2022-09-15T15:26:39.937Z,17.6
2022-09-15T15:31:40.085Z,17.7
2022-09-15T15:36:39.935Z,17.6
2022-09-15T15:41:39.962Z,17.6
2022-09-15T15:46:39.946Z,17.7
2022-09-15T15:51:39.945Z,17.6
2022-09-15T15:56:39.952Z,17.3
2022-09-15T16:01:40.040Z,17.2
2022-09-15T16:06:39.960Z,17.1
2022-09-15T16:11:39.958Z,17.1
2022-09-15T16:16:40.034Z,16.9
2022-09-15T16:21:39.963Z,16.7
2022-09-15T16:26:39.972Z,16.7
2022-09-15T16:31:40.049Z,16.6
2022-09-15T16:36:39.973Z,16.4
2022-09-15T16:41:40.170Z,16.4
2022-09-15T16:46:40.035Z,16.3
2022-09-15T16:51:39.982Z,16.1
2022-09-15T16:56:39.983Z,15.0
2022-09-15T17:01:40.093Z,14.6
2022-09-15T17:06:39.994Z,14.4
2022-09-15T17:11:39.991Z,14.2
2022-09-15T17:16:40.001Z,14.1
2022-09-15T17:21:40.007Z,14.0
2022-09-15T17:26:40.003Z,13.9
2022-09-15T17:31:40.136Z,13.9
2022-09-15T17:36:40.011Z,13.6
2022-09-15T17:41:40.018Z,13.5
2022-09-15T17:46:40.105Z,13.4
2022-09-15T17:51:40.017Z,13.3
2022-09-15T17:56:40.017Z,13.3
2022-09-15T18:01:40.154Z,13.2
2022-09-15T18:06:44.711Z,13.2
2022-09-15T18:11:40.031Z,13.1
2022-09-15T18:16:40.031Z,13.0
2022-09-15T18:21:40.035Z,12.9
2022-09-15T18:26:40.039Z,12.8
2022-09-15T18:31:40.077Z,12.8
2022-09-15T18:36:40.040Z,12.7
2022-09-15T18:41:40.223Z,12.6
2022-09-15T18:46:40.140Z,12.6
2022-09-15T18:51:51.128Z,12.6
2022-09-15T18:56:40.055Z,12.6
2022-09-15T19:01:40.292Z,12.6
2022-09-15T19:06:40.061Z,12.6
2022-09-15T19:11:40.075Z,12.6
2022-09-15T19:16:57.121Z,12.6
2022-09-15T19:21:40.074Z,12.6
2022-09-15T19:26:40.078Z,12.6
2022-09-15T19:31:42.157Z,12.5
2022-09-15T19:36:40.156Z,12.4
2022-09-15T19:41:40.082Z,12.3
2022-09-15T19:46:40.079Z,12.3
2022-09-15T19:51:40.087Z,12.4
2022-09-15T19:56:40.087Z,12.4
2022-09-15T20:01:40.148Z,12.3
2022-09-15T20:06:40.078Z,12.2
2022-09-15T20:11:40.118Z,12.1
2022-09-15T20:16:40.139Z,12.1
2022-09-15T20:21:50.777Z,12.0
2022-09-15T20:26:40.108Z,11.9
2022-09-15T20:31:40.117Z,11.9
2022-09-15T20:36:40.120Z,11.8
2022-09-15T20:41:40.312Z,11.8
2022-09-15T20:46:40.120Z,11.8
2022-09-15T20:51:40.127Z,11.8
2022-09-15T20:56:40.128Z,11.7
2022-09-15T21:01:40.255Z,11.7
2022-09-15T21:06:40.127Z,11.7
2022-09-15T21:11:40.273Z,11.7
2022-09-15T21:16:40.161Z,11.6
2022-09-15T21:21:40.141Z,11.6
2022-09-15T21:26:40.147Z,11.6
2022-09-15T21:31:40.177Z,11.6
2022-09-15T21:36:40.154Z,11.7
2022-09-15T21:41:40.373Z,11.6
2022-09-15T21:46:40.159Z,11.6
2022-09-15T21:51:40.162Z,11.6
2022-09-15T21:56:40.169Z,11.6
2022-09-15T22:01:40.159Z,11.7
2022-09-15T22:06:40.185Z,11.8
2022-09-15T22:11:40.209Z,11.8
2022-09-15T22:16:40.263Z,11.8
2022-09-15T22:21:40.176Z,11.9
2022-09-15T22:26:40.179Z,11.9
2022-09-15T22:31:40.219Z,11.9
2022-09-15T22:36:40.184Z,11.8
2022-09-15T22:41:40.401Z,11.8
2022-09-15T22:46:40.205Z,11.7
2022-09-15T22:51:40.197Z,11.8
2022-09-15T22:56:40.202Z,11.8
2022-09-15T23:01:40.205Z,11.8
2022-09-15T23:06:40.203Z,11.7
2022-09-15T23:11:40.400Z,11.6
2022-09-15T23:16:40.239Z,11.6
2022-09-15T23:21:40.216Z,11.5
2022-09-15T23:26:40.215Z,11.6
2022-09-15T23:31:40.311Z,11.6
2022-09-15T23:36:40.232Z,11.6
2022-09-15T23:41:40.393Z,11.6
2022-09-15T23:46:40.325Z,11.6
2022-09-15T23:51:40.234Z,11.5
2022-09-15T23:56:40.231Z,11.6
